createdAt,value
2019-01-29T00:00:24.009Z,94161.50
2019-01-29T00:05:21.132Z,94162.42
2019-01-29T00:10:18.094Z,94161.71
2019-01-29T00:15:14.988Z,94168.16
2019-01-29T00:20:12.125Z,94169.40
2019-01-29T00:25:10.012Z,94169.87
2019-01-29T00:30:10.966Z,94168.98
2019-01-29T00:35:07.960Z,94167.95
2019-01-29T00:40:11.478Z,94171.84
2019-01-29T00:45:12.383Z,94177.88
2019-01-29T00:50:12.979Z,94176.56
2019-01-29T00:55:16.036Z,94189.74
2019-01-29T01:00:17.546Z,94191.89
2019-01-29T01:05:15.204Z,94194.57
2019-01-29T01:10:18.701Z,94194.89
2019-01-29T01:15:16.111Z,94198.33
2019-01-29T01:20:16.061Z,94201.09
2019-01-29T01:25:14.072Z,94205.98
2019-01-29T01:30:17.097Z,94214.80
2019-01-29T01:35:14.104Z,94213.86
2019-01-29T01:40:18.145Z,94217.48
2019-01-29T01:45:15.047Z,94226.23
2019-01-29T01:50:13.549Z,94228.19
2019-01-29T01:55:13.909Z,94215.18
2019-01-29T02:00:20.417Z,94229.90
2019-01-29T02:05:17.424Z,94230.52
2019-01-29T02:10:21.652Z,94230.84
2019-01-29T02:15:18.865Z,94227.56
2019-01-29T02:20:16.506Z,94230.73
2019-01-29T02:25:13.729Z,94230.21
2019-01-29T02:30:19.947Z,94223.56
2019-01-29T02:35:16.967Z,94239.02
2019-01-29T02:40:21.552Z,94244.78
2019-01-29T02:45:18.850Z,94247.21
2019-01-29T02:50:17.511Z,94257.99
2019-01-29T02:55:14.820Z,94258.50
2019-01-29T03:00:21.941Z,94256.05
2019-01-29T03:05:18.940Z,94252.84
2019-01-29T03:10:19.010Z,94253.25
2019-01-29T03:15:20.950Z,94258.95
2019-01-29T03:20:17.975Z,94273.53
2019-01-29T03:25:15.015Z,94277.20
2019-01-29T03:30:20.307Z,94272.66
2019-01-29T03:35:17.432Z,94270.79
2019-01-29T03:40:19.386Z,94285.28
2019-01-29T03:45:16.585Z,94294.80
2019-01-29T03:50:19.365Z,94297.16
2019-01-29T03:55:16.266Z,94303.34
2019-01-29T04:00:17.429Z,94305.94
2019-01-29T04:05:14.352Z,94317.97
2019-01-29T04:10:16.243Z,94323.43
2019-01-29T04:15:17.839Z,94320.16
2019-01-29T04:20:20.165Z,94332.17
2019-01-29T04:25:17.468Z,94332.90
2019-01-29T04:30:17.213Z,94328.94
2019-01-29T04:35:14.435Z,94334.77
2019-01-29T04:40:17.088Z,94337.48
2019-01-29T04:45:16.200Z,94341.38
2019-01-29T04:50:16.833Z,94345.05
2019-01-29T04:55:16.298Z,94368.19
2019-01-29T05:00:20.278Z,94367.59
2019-01-29T05:05:18.173Z,94363.63
2019-01-29T05:10:18.321Z,94367.82
2019-01-29T05:15:17.723Z,94373.77
2019-01-29T05:20:20.050Z,94390.11
2019-01-29T05:25:17.199Z,94391.87
2019-01-29T05:30:21.012Z,94406.39
2019-01-29T05:35:18.163Z,94401.16
2019-01-29T05:40:18.212Z,94400.41
2019-01-29T05:45:17.809Z,94410.95
2019-01-29T05:50:15.199Z,94410.58
2019-01-29T05:55:14.196Z,94423.05
2019-01-29T06:00:21.045Z,94426.42
2019-01-29T06:05:18.349Z,94421.20
2019-01-29T06:10:16.582Z,94430.34
2019-01-29T06:15:23.165Z,94432.43
2019-01-29T06:20:27.042Z,94431.82
2019-01-29T06:25:23.943Z,94448.01
2019-01-29T06:30:24.597Z,94461.16
2019-01-29T06:35:22.196Z,94474.75
2019-01-29T06:40:27.356Z,94468.96
2019-01-29T06:45:25.133Z,94493.84
2019-01-29T06:50:25.478Z,94508.13
2019-01-29T06:55:24.895Z,94513.30
2019-01-29T07:00:30.704Z,94525.20
2019-01-29T07:05:27.602Z,94524.63
2019-01-29T07:10:25.764Z,94530.38
2019-01-29T07:15:46.515Z,94532.79
2019-01-29T07:20:43.466Z,94538.80
2019-01-29T07:25:40.644Z,94543.67
2019-01-29T07:30:37.610Z,94546.04
2019-01-29T07:35:34.559Z,94557.03
2019-01-29T07:40:31.456Z,94565.32
2019-01-29T07:45:28.438Z,94579.33
2019-01-29T07:50:25.423Z,94586.33
2019-01-29T07:55:22.387Z,94583.35
2019-01-29T08:00:19.419Z,94596.69
2019-01-29T08:05:16.386Z,94597.08
2019-01-29T08:10:16.832Z,94607.68
2019-01-29T08:15:21.463Z,94615.75
2019-01-29T08:20:18.679Z,94623.96
2019-01-29T08:25:15.742Z,94627.59
2019-01-29T08:30:14.961Z,94630.29
2019-01-29T08:35:14.571Z,94636.20
2019-01-29T08:40:14.129Z,94645.96
2019-01-29T08:45:16.836Z,94657.23
2019-01-29T08:50:22.595Z,94658.09
2019-01-29T08:55:19.738Z,94662.72
2019-01-29T09:00:21.389Z,94662.64
2019-01-29T09:05:18.401Z,94670.58
2019-01-29T09:10:19.149Z,94670.41
2019-01-29T09:15:17.957Z,94682.06
2019-01-29T09:20:21.158Z,94686.41
2019-01-29T09:25:21.117Z,94692.58
2019-01-29T09:30:18.748Z,94691.84
2019-01-29T09:35:15.655Z,94688.48
2019-01-29T09:40:16.912Z,94690.05
2019-01-29T09:45:16.324Z,94692.97
2019-01-29T09:50:21.530Z,94697.40
2019-01-29T09:55:29.125Z,94706.02
2019-01-29T10:00:32.867Z,94708.13
2019-01-29T10:05:30.018Z,94705.72
2019-01-29T10:10:26.975Z,94707.81
2019-01-29T10:15:33.326Z,94702.98
2019-01-29T10:20:30.224Z,94696.67
2019-01-29T10:25:27.577Z,94698.21
2019-01-29T10:30:25.771Z,94693.97
2019-01-29T10:35:27.262Z,94694.47
2019-01-29T10:40:26.384Z,94695.20
2019-01-29T10:45:26.520Z,94696.45
2019-01-29T10:50:26.639Z,94694.59
2019-01-29T10:55:23.731Z,94687.19
2019-01-29T11:00:25.470Z,94689.96
2019-01-29T11:05:22.486Z,94683.69
2019-01-29T11:10:20.832Z,94690.61
2019-01-29T11:15:36.557Z,94686.71
2019-01-29T11:20:33.478Z,94682.73
2019-01-29T11:25:30.555Z,94687.68
2019-01-29T11:30:31.417Z,94685.17
2019-01-29T11:35:28.366Z,94686.23
2019-01-29T11:40:30.476Z,94690.88
2019-01-29T11:45:37.335Z,94696.84
2019-01-29T11:50:34.240Z,94693.08
2019-01-29T11:55:31.265Z,94692.28
2019-01-29T12:00:35.598Z,94692.92
2019-01-29T12:05:32.490Z,94692.52
2019-01-29T12:10:29.453Z,94704.97
2019-01-29T12:15:26.365Z,94715.17
2019-01-29T12:20:23.333Z,94706.20
2019-01-29T12:25:20.331Z,94716.03
2019-01-29T12:30:24.114Z,94713.92
2019-01-29T12:35:21.031Z,94719.28
2019-01-29T12:40:17.977Z,94716.98
2019-01-29T12:45:17.141Z,94719.47
2019-01-29T12:50:22.281Z,94726.14
2019-01-29T12:55:19.276Z,94726.31
2019-01-29T13:00:18.629Z,94737.04
2019-01-29T13:05:15.521Z,94743.56
2019-01-29T13:10:24.582Z,94741.03
2019-01-29T13:15:26.253Z,94746.56
2019-01-29T13:20:23.677Z,94744.94
2019-01-29T13:25:20.895Z,94755.20
2019-01-29T13:30:28.935Z,94754.88
2019-01-29T13:35:32.090Z,94760.22
2019-01-29T13:40:29.411Z,94759.08
2019-01-29T13:45:26.382Z,94762.38
2019-01-29T13:50:39.783Z,94762.36
2019-01-29T13:55:36.705Z,94765.11
2019-01-29T14:00:37.261Z,94765.55
2019-01-29T14:05:34.178Z,94770.55
2019-01-29T14:10:31.340Z,94777.91
2019-01-29T14:15:31.182Z,94779.34
2019-01-29T14:20:28.116Z,94788.03
2019-01-29T14:25:25.030Z,94789.14
2019-01-29T14:30:26.302Z,94793.98
2019-01-29T14:35:23.449Z,94796.16
2019-01-29T14:40:21.064Z,94801.08
2019-01-29T14:45:19.343Z,94798.30
2019-01-29T14:50:16.902Z,94807.37
2019-01-29T14:55:14.308Z,94809.43
2019-01-29T15:00:22.698Z,94820.72
2019-01-29T15:05:20.601Z,94822.45
2019-01-29T15:10:24.316Z,94825.53
2019-01-29T15:15:28.262Z,94826.27
2019-01-29T15:20:25.183Z,94829.31
2019-01-29T15:25:22.118Z,94832.63
2019-01-29T15:30:28.789Z,94835.67
2019-01-29T15:35:25.903Z,94838.55
2019-01-29T15:40:22.951Z,94843.06
2019-01-29T15:45:24.727Z,94842.81
2019-01-29T15:50:24.957Z,94863.21
2019-01-29T15:55:22.464Z,94866.27
2019-01-29T16:00:31.170Z,94862.02
2019-01-29T16:05:39.092Z,94863.89
2019-01-29T16:10:40.018Z,94863.77
2019-01-29T16:15:37.266Z,94865.42
2019-01-29T16:20:34.226Z,94866.49
2019-01-29T16:25:33.284Z,94869.47
2019-01-29T16:30:36.397Z,94873.27
2019-01-29T16:35:39.513Z,94876.20
2019-01-29T16:40:41.019Z,94875.37
2019-01-29T16:45:37.980Z,94888.87
2019-01-29T16:50:35.053Z,94890.66
2019-01-29T16:55:31.949Z,94888.19
2019-01-29T17:00:34.574Z,94885.19
2019-01-29T17:05:32.721Z,94888.66
2019-01-29T17:10:31.958Z,94892.88
2019-01-29T17:15:34.328Z,94889.72
2019-01-29T17:20:36.723Z,94898.08
2019-01-29T17:25:33.692Z,94904.47
2019-01-29T17:30:35.273Z,94909.54
2019-01-29T17:35:32.568Z,94909.48
2019-01-29T17:40:29.536Z,94910.11
2019-01-29T17:45:43.009Z,94915.02
2019-01-29T17:50:42.646Z,94924.66
2019-01-29T17:55:41.361Z,94934.86
2019-01-29T18:00:40.227Z,94935.05
2019-01-29T18:05:37.981Z,94940.05
2019-01-29T18:10:34.906Z,94943.45
2019-01-29T18:15:31.965Z,94943.59
2019-01-29T18:20:28.930Z,94941.76
2019-01-29T18:25:25.877Z,94944.88
2019-01-29T18:30:30.773Z,94936.48
2019-01-29T18:35:27.688Z,94932.05
2019-01-29T18:40:40.820Z,94928.23
2019-01-29T18:45:37.724Z,94927.69
2019-01-29T18:50:34.672Z,94922.56
2019-01-29T18:55:31.736Z,94918.38
2019-01-29T19:00:28.696Z,94923.27
2019-01-29T19:05:25.928Z,94927.45
2019-01-29T19:10:24.057Z,94918.30
2019-01-29T19:15:25.736Z,94941.17
2019-01-29T19:20:25.830Z,94937.89
2019-01-29T19:25:22.740Z,94942.77
2019-01-29T19:30:31.444Z,94941.30
2019-01-29T19:35:28.486Z,94945.45
2019-01-29T19:40:25.538Z,94940.67
2019-01-29T19:45:29.762Z,94934.91
2019-01-29T19:50:31.525Z,94947.82
2019-01-29T19:55:28.656Z,94951.92
2019-01-29T20:00:38.539Z,94950.63
2019-01-29T20:05:35.450Z,94955.06
2019-01-29T20:10:32.866Z,94956.47
2019-01-29T20:15:29.769Z,94964.47
2019-01-29T20:20:31.133Z,94960.60
2019-01-29T20:25:28.066Z,94952.80
2019-01-29T20:30:29.220Z,94942.95
2019-01-29T20:35:26.169Z,94947.57
2019-01-29T20:40:23.445Z,94948.56
2019-01-29T20:45:20.355Z,94945.61
2019-01-29T20:50:27.591Z,94936.95
2019-01-29T20:55:24.516Z,94932.01
2019-01-29T21:00:27.742Z,94925.99
2019-01-29T21:05:24.657Z,94915.39
2019-01-29T21:10:23.106Z,94920.98
2019-01-29T21:15:26.630Z,94918.58
2019-01-29T21:20:29.486Z,94914.58
2019-01-29T21:25:26.522Z,94913.92
2019-01-29T21:30:38.525Z,94910.76
2019-01-29T21:35:35.432Z,94914.88
2019-01-29T21:40:32.401Z,94918.09
2019-01-29T21:45:29.502Z,94914.58
2019-01-29T21:50:31.251Z,94915.61
2019-01-29T21:55:28.267Z,94920.19
2019-01-29T22:00:33.413Z,94916.48
2019-01-29T22:05:30.525Z,94909.86
2019-01-29T22:10:27.661Z,94911.92
2019-01-29T22:20:42.149Z,94895.48
2019-01-29T22:25:39.059Z,94898.34
2019-01-29T22:30:39.188Z,94902.31
2019-01-29T22:35:36.116Z,94908.75
2019-01-29T22:40:33.885Z,94900.78
2019-01-29T22:45:30.781Z,94905.18
2019-01-29T22:50:39.813Z,94902.10
2019-01-29T22:55:37.011Z,94903.22
2019-01-29T23:00:49.344Z,94897.80
2019-01-29T23:06:03.772Z,94895.45
2019-01-29T23:11:00.683Z,94888.60
2019-01-29T23:15:58.081Z,94874.64
2019-01-29T23:20:54.968Z,94868.27
2019-01-29T23:25:51.920Z,94865.31
2019-01-29T23:30:48.836Z,94860.05
2019-01-29T23:35:45.772Z,94862.30
2019-01-29T23:40:42.684Z,94854.27
2019-01-29T23:45:39.624Z,94853.98
2019-01-29T23:50:36.540Z,94853.15
2019-01-29T23:55:33.483Z,94856.95
